createdAt,value
2018-07-14T00:01:51.289Z,3.67
2018-07-14T00:04:18.522Z,4.10
2018-07-14T00:06:45.720Z,3.67
2018-07-14T00:09:12.941Z,4.10
2018-07-14T00:11:40.190Z,4.33
2018-07-14T00:14:07.388Z,3.83
2018-07-14T00:16:34.600Z,3.37
2018-07-14T00:19:01.815Z,3.97
2018-07-14T00:21:29.143Z,4.60
2018-07-14T00:23:56.376Z,4.00
2018-07-14T00:26:23.596Z,4.17
2018-07-14T00:28:50.781Z,4.07
2018-07-14T00:31:18.020Z,4.20
2018-07-14T00:33:45.188Z,3.97
2018-07-14T00:36:12.437Z,4.17
2018-07-14T00:38:39.651Z,3.93
2018-07-14T00:41:06.884Z,4.17
2018-07-14T00:43:34.153Z,4.07
2018-07-14T00:46:01.477Z,3.53
2018-07-14T00:48:28.769Z,4.27
2018-07-14T00:50:55.989Z,4.33
2018-07-14T00:53:23.285Z,4.63
2018-07-14T00:55:51.344Z,4.37
2018-07-14T00:58:18.745Z,3.90
2018-07-14T01:00:46.024Z,4.27
2018-07-14T01:03:13.169Z,3.90
2018-07-14T01:05:41.052Z,3.90
2018-07-14T01:08:08.264Z,4.93
2018-07-14T01:10:35.420Z,3.90
2018-07-14T01:13:02.604Z,4.50
2018-07-14T01:15:29.796Z,4.17
2018-07-14T01:17:56.964Z,4.63
2018-07-14T01:20:24.172Z,4.10
2018-07-14T01:22:51.360Z,4.40
2018-07-14T01:25:18.568Z,4.97
2018-07-14T01:27:45.761Z,3.97
2018-07-14T01:30:13.036Z,4.93
2018-07-14T01:32:40.285Z,4.73
2018-07-14T01:35:07.864Z,4.33
2018-07-14T01:37:35.215Z,4.70
2018-07-14T01:40:02.521Z,4.80
2018-07-14T01:42:29.760Z,4.17
2018-07-14T01:44:56.956Z,4.30
2018-07-14T01:47:24.203Z,4.20
2018-07-14T01:49:51.464Z,4.50
2018-07-14T01:52:18.657Z,4.27
2018-07-14T01:54:45.843Z,4.47
2018-07-14T01:57:13.040Z,4.07
2018-07-14T01:59:40.268Z,3.80
2018-07-14T02:02:07.589Z,4.33
2018-07-14T02:04:34.787Z,3.30
2018-07-14T02:07:02.040Z,4.37
2018-07-14T02:09:29.252Z,4.10
2018-07-14T02:11:56.416Z,4.03
2018-07-14T02:14:23.564Z,4.57
2018-07-14T02:16:50.732Z,3.93
2018-07-14T02:19:17.965Z,4.33
2018-07-14T02:21:45.248Z,3.93
2018-07-14T02:24:12.472Z,4.50
2018-07-14T02:26:39.703Z,3.90
2018-07-14T02:29:06.974Z,4.50
2018-07-14T02:31:34.211Z,4.53
2018-07-14T02:34:01.432Z,4.37
2018-07-14T02:36:28.661Z,3.60
2018-07-14T02:38:55.916Z,3.90
2018-07-14T02:41:23.141Z,3.90
2018-07-14T02:43:50.332Z,4.37
2018-07-14T02:46:17.580Z,3.83
2018-07-14T02:48:44.708Z,3.70
2018-07-14T02:51:11.933Z,4.20
2018-07-14T02:53:39.126Z,4.13
2018-07-14T02:56:06.377Z,3.53
2018-07-14T02:58:33.637Z,3.67
2018-07-14T03:01:00.861Z,4.50
2018-07-14T03:03:28.094Z,3.30
2018-07-14T03:05:55.277Z,4.00
2018-07-14T03:08:22.500Z,3.73
2018-07-14T03:10:49.712Z,3.70
2018-07-14T03:13:16.903Z,3.70
2018-07-14T03:15:44.177Z,3.43
2018-07-14T03:18:11.384Z,3.93
2018-07-14T03:20:38.699Z,4.43
2018-07-14T03:23:05.949Z,4.03
2018-07-14T03:25:33.173Z,4.60
2018-07-14T03:28:00.891Z,3.57
2018-07-14T03:30:28.068Z,3.63
2018-07-14T03:32:55.296Z,3.80
2018-07-14T03:35:22.512Z,4.20
2018-07-14T03:37:49.721Z,3.80
2018-07-14T03:40:16.997Z,4.27
2018-07-14T03:42:44.238Z,3.60
2018-07-14T03:45:11.384Z,3.70
2018-07-14T03:47:38.622Z,4.00
2018-07-14T03:50:05.841Z,4.27
2018-07-14T03:52:33.064Z,4.00
2018-07-14T03:55:00.300Z,4.10
2018-07-14T03:57:27.492Z,4.30
2018-07-14T03:59:54.699Z,3.53
2018-07-14T04:02:21.892Z,3.30
2018-07-14T04:04:49.205Z,3.43
2018-07-14T04:07:16.460Z,3.60
2018-07-14T04:09:43.674Z,3.50
2018-07-14T04:12:11.524Z,3.00
2018-07-14T04:14:38.736Z,3.30
2018-07-14T04:17:05.953Z,3.67
2018-07-14T04:19:33.196Z,3.13
2018-07-14T04:22:00.492Z,3.50
2018-07-14T04:24:27.733Z,3.03
2018-07-14T04:26:54.943Z,3.57
2018-07-14T04:29:22.173Z,3.77
2018-07-14T04:31:49.421Z,3.50
2018-07-14T04:34:16.604Z,3.63
2018-07-14T04:36:43.777Z,3.97
2018-07-14T04:39:11.024Z,3.83
2018-07-14T04:41:38.286Z,3.60
2018-07-14T04:44:05.572Z,3.03
2018-07-14T04:46:32.747Z,3.10
2018-07-14T04:49:00.029Z,3.80
2018-07-14T04:51:27.232Z,3.63
2018-07-14T04:53:54.484Z,3.63
2018-07-14T04:56:21.757Z,4.00
2018-07-14T04:58:48.952Z,3.83
2018-07-14T05:01:16.192Z,3.10
2018-07-14T05:03:43.594Z,3.90
2018-07-14T05:06:10.801Z,3.60
2018-07-14T05:08:38.028Z,4.30
2018-07-14T05:11:05.463Z,3.97
2018-07-14T05:13:32.656Z,3.77
2018-07-14T05:15:59.860Z,3.77
2018-07-14T05:18:27.096Z,3.67
2018-07-14T05:20:55.089Z,3.57
2018-07-14T05:23:22.258Z,4.13
2018-07-14T05:25:49.444Z,4.60
2018-07-14T05:28:16.680Z,3.80
2018-07-14T05:30:43.912Z,4.07
2018-07-14T05:33:11.154Z,4.73
2018-07-14T05:35:38.387Z,3.53
2018-07-14T05:38:05.597Z,3.87
2018-07-14T05:40:32.856Z,4.17
2018-07-14T05:43:00.081Z,3.97
2018-07-14T05:45:27.298Z,3.40
2018-07-14T05:47:54.750Z,3.97
2018-07-14T05:50:21.980Z,3.73
2018-07-14T05:52:49.160Z,3.87
2018-07-14T05:55:16.403Z,4.13
2018-07-14T05:57:43.603Z,4.67
2018-07-14T06:00:10.852Z,4.77
2018-07-14T06:02:38.084Z,4.57
2018-07-14T06:05:05.297Z,4.07
2018-07-14T06:07:32.546Z,3.90
2018-07-14T06:09:59.740Z,4.30
2018-07-14T06:12:27.035Z,4.17
2018-07-14T06:14:54.227Z,3.97
2018-07-14T06:17:21.433Z,3.70
2018-07-14T06:19:48.624Z,3.90
2018-07-14T06:22:15.810Z,4.50
2018-07-14T06:24:43.049Z,4.03
2018-07-14T06:27:10.220Z,3.47
2018-07-14T06:29:37.497Z,3.20
2018-07-14T06:32:04.817Z,4.30
2018-07-14T06:34:32.089Z,4.00
2018-07-14T06:36:59.280Z,4.60
2018-07-14T06:39:26.508Z,4.77
2018-07-14T06:41:53.743Z,3.97
2018-07-14T06:44:21.036Z,3.60
2018-07-14T06:46:48.252Z,3.70
2018-07-14T06:49:15.464Z,4.37
2018-07-14T06:51:42.679Z,3.50
2018-07-14T06:54:09.971Z,3.63
2018-07-14T06:56:37.224Z,3.30
2018-07-14T06:59:04.420Z,3.83
2018-07-14T07:01:31.648Z,3.80
2018-07-14T07:03:58.851Z,3.43
2018-07-14T07:06:26.089Z,3.80
2018-07-14T07:08:53.296Z,3.00
2018-07-14T07:11:20.519Z,3.50
2018-07-14T07:13:47.824Z,3.77
2018-07-14T07:16:14.966Z,4.33
2018-07-14T07:18:42.171Z,3.60
2018-07-14T07:21:10.222Z,3.77
2018-07-14T07:23:37.429Z,3.53
2018-07-14T07:26:04.825Z,3.10
2018-07-14T07:28:32.056Z,3.23
2018-07-14T07:30:59.324Z,3.20
2018-07-14T07:33:26.540Z,3.07
2018-07-14T07:35:53.836Z,3.50
2018-07-14T07:38:21.200Z,3.13
2018-07-14T07:40:48.398Z,3.37
2018-07-14T07:43:15.691Z,3.23
2018-07-14T07:45:42.932Z,3.70
2018-07-14T07:48:10.217Z,4.30
2018-07-14T07:50:37.442Z,3.70
2018-07-14T07:53:04.788Z,2.87
2018-07-14T07:55:32.055Z,3.00
2018-07-14T07:57:59.359Z,3.23
2018-07-14T08:00:26.552Z,3.43
2018-07-14T08:02:53.737Z,3.17
2018-07-14T08:05:20.892Z,3.10
2018-07-14T08:07:48.090Z,3.17
2018-07-14T08:10:15.342Z,3.70
2018-07-14T08:12:42.576Z,3.50
2018-07-14T08:15:09.860Z,3.00
2018-07-14T08:17:37.368Z,4.03
2018-07-14T08:20:04.784Z,3.37
2018-07-14T08:22:32.060Z,3.30
2018-07-14T08:24:59.205Z,3.00
2018-07-14T08:27:26.427Z,3.43
2018-07-14T08:29:53.647Z,2.90
2018-07-14T08:32:20.913Z,2.77
2018-07-14T08:34:48.084Z,2.90
2018-07-14T08:37:15.298Z,2.53
2018-07-14T08:39:42.483Z,2.73
2018-07-14T08:42:09.686Z,3.03
2018-07-14T08:44:37.097Z,3.00
2018-07-14T08:47:04.901Z,3.60
2018-07-14T08:49:32.162Z,2.60
2018-07-14T08:51:59.360Z,1.90
2018-07-14T08:54:26.808Z,3.00
2018-07-14T08:56:54.108Z,2.27
2018-07-14T08:59:21.340Z,2.07
2018-07-14T09:01:48.577Z,2.47
2018-07-14T09:04:15.826Z,2.03
2018-07-14T09:06:43.048Z,2.20
2018-07-14T09:09:10.319Z,2.20
2018-07-14T09:11:37.556Z,1.90
2018-07-14T09:14:04.766Z,2.20
2018-07-14T09:16:31.968Z,2.50
2018-07-14T09:18:59.169Z,2.33
2018-07-14T09:21:27.160Z,2.40
2018-07-14T09:23:54.373Z,2.37
2018-07-14T09:26:21.631Z,2.40
2018-07-14T09:28:49.330Z,2.10
2018-07-14T09:31:16.658Z,2.30
2018-07-14T09:33:43.869Z,2.60
2018-07-14T09:36:11.117Z,2.17
2018-07-14T09:38:38.337Z,2.50
2018-07-14T09:41:05.512Z,2.60
2018-07-14T09:43:32.770Z,2.60
2018-07-14T09:45:59.966Z,2.70
2018-07-14T09:48:27.268Z,2.30
2018-07-14T09:50:54.480Z,2.50
2018-07-14T09:53:21.700Z,2.77
2018-07-14T09:55:48.931Z,2.73
2018-07-14T09:58:16.246Z,2.43
2018-07-14T10:00:50.335Z,2.67
2018-07-14T10:03:17.682Z,2.43
2018-07-14T10:05:44.819Z,3.10
2018-07-14T10:08:12.056Z,2.60
2018-07-14T10:10:39.229Z,3.37
2018-07-14T10:13:06.541Z,3.07
2018-07-14T10:15:33.736Z,3.10
2018-07-14T10:18:00.956Z,2.63
2018-07-14T10:20:28.216Z,3.07
2018-07-14T10:22:55.460Z,3.20
2018-07-14T10:25:22.792Z,2.90
2018-07-14T10:27:49.927Z,3.20
2018-07-14T10:30:17.194Z,3.23
2018-07-14T10:32:44.431Z,3.60
2018-07-14T10:35:11.637Z,2.67
2018-07-14T10:37:38.823Z,3.40
2018-07-14T10:40:06.097Z,2.83
2018-07-14T10:42:33.413Z,2.90
2018-07-14T10:45:00.594Z,3.30
2018-07-14T10:47:27.810Z,2.70
2018-07-14T10:49:54.972Z,3.40
2018-07-14T10:52:22.186Z,2.93
2018-07-14T10:54:49.436Z,2.73
2018-07-14T10:57:16.718Z,3.00
2018-07-14T10:59:43.900Z,2.93
2018-07-14T11:02:11.059Z,2.90
2018-07-14T11:04:38.254Z,3.33
2018-07-14T11:07:05.484Z,3.20
2018-07-14T11:09:32.797Z,3.37
2018-07-14T11:12:00.109Z,3.13
2018-07-14T11:14:27.260Z,3.00
2018-07-14T11:16:54.484Z,3.10
2018-07-14T11:19:21.650Z,3.07
2018-07-14T11:21:48.888Z,2.63
2018-07-14T11:24:16.120Z,2.90
2018-07-14T11:26:43.356Z,3.00
2018-07-14T11:29:10.564Z,3.20
2018-07-14T11:31:37.836Z,3.20
2018-07-14T11:34:05.143Z,3.30
2018-07-14T11:36:32.356Z,2.97
2018-07-14T11:38:59.713Z,3.47
2018-07-14T11:41:26.967Z,3.00
2018-07-14T11:43:54.224Z,3.37
2018-07-14T11:46:21.463Z,3.30
2018-07-14T11:48:48.618Z,3.37
2018-07-14T11:51:15.904Z,2.90
2018-07-14T11:53:43.132Z,2.60
2018-07-14T11:56:10.382Z,3.50
2018-07-14T11:58:37.607Z,3.00
2018-07-14T12:01:04.891Z,2.90
2018-07-14T12:03:32.433Z,2.80
2018-07-14T12:05:59.667Z,2.93
2018-07-14T12:08:26.936Z,2.70
2018-07-14T12:10:54.216Z,3.43
2018-07-14T12:13:22.090Z,2.90
2018-07-14T12:15:50.105Z,3.03
2018-07-14T12:18:17.281Z,3.27
2018-07-14T12:20:44.535Z,3.13
2018-07-14T12:23:11.757Z,3.07
2018-07-14T12:25:39.020Z,2.70
2018-07-14T12:28:06.419Z,2.43
2018-07-14T12:30:33.678Z,2.90
2018-07-14T12:33:00.884Z,3.30
2018-07-14T12:35:28.136Z,2.83
2018-07-14T12:37:55.377Z,2.50
2018-07-14T12:40:22.623Z,3.20
2018-07-14T12:42:49.825Z,2.70
2018-07-14T12:45:17.081Z,2.97
2018-07-14T12:47:44.271Z,2.57
2018-07-14T12:50:11.513Z,2.90
2018-07-14T12:52:38.737Z,3.00
2018-07-14T12:55:06.248Z,2.33
2018-07-14T12:57:33.541Z,3.00
2018-07-14T13:00:00.851Z,2.43
2018-07-14T13:02:28.037Z,2.50
2018-07-14T13:04:55.206Z,3.30
2018-07-14T13:07:22.554Z,2.80
2018-07-14T13:09:49.812Z,2.87
2018-07-14T13:12:17.593Z,2.47
2018-07-14T13:14:44.841Z,2.83
2018-07-14T13:17:12.414Z,2.50
2018-07-14T13:19:39.636Z,2.67
2018-07-14T13:22:06.948Z,2.73
2018-07-14T13:24:34.225Z,2.60
2018-07-14T13:27:01.428Z,2.63
2018-07-14T13:29:28.717Z,3.40
2018-07-14T13:31:56.019Z,3.07
2018-07-14T13:34:23.277Z,3.23
2018-07-14T13:36:50.520Z,2.77
2018-07-14T13:39:17.741Z,3.17
2018-07-14T13:41:44.960Z,3.00
2018-07-14T13:44:12.120Z,2.47
2018-07-14T13:46:39.398Z,2.90
2018-07-14T13:49:06.624Z,3.10
2018-07-14T13:51:33.920Z,2.90
2018-07-14T13:54:01.257Z,2.37
2018-07-14T13:56:28.459Z,2.90
2018-07-14T13:58:55.777Z,2.43
2018-07-14T14:01:23.012Z,2.27
2018-07-14T14:03:50.266Z,2.60
2018-07-14T14:06:17.487Z,2.60
2018-07-14T14:08:44.725Z,3.27
2018-07-14T14:11:11.939Z,3.07
2018-07-14T14:13:39.182Z,2.80
2018-07-14T14:16:06.894Z,3.00
2018-07-14T14:18:34.091Z,3.33
2018-07-14T14:21:01.387Z,2.80
2018-07-14T14:23:28.695Z,2.80
2018-07-14T14:25:55.918Z,3.43
2018-07-14T14:28:23.224Z,3.50
2018-07-14T14:30:50.464Z,3.00
2018-07-14T14:33:17.688Z,3.30
2018-07-14T14:35:44.861Z,3.20
2018-07-14T14:38:12.056Z,3.10
2018-07-14T14:40:39.390Z,3.63
2018-07-14T14:43:06.797Z,3.13
2018-07-14T14:45:34.062Z,2.70
2018-07-14T14:48:01.295Z,2.93
2018-07-14T14:50:28.524Z,3.00
2018-07-14T14:52:55.859Z,2.83
2018-07-14T14:55:23.200Z,3.17
2018-07-14T14:57:50.480Z,3.23
2018-07-14T15:00:17.765Z,3.17
2018-07-14T15:02:45.259Z,3.30
2018-07-14T15:05:12.596Z,3.30
2018-07-14T15:07:39.884Z,3.13
2018-07-14T15:10:07.234Z,2.93
2018-07-14T15:12:34.468Z,3.00
2018-07-14T15:15:01.817Z,3.00
2018-07-14T15:17:29.351Z,3.13
2018-07-14T15:19:56.625Z,3.07
2018-07-14T15:22:24.543Z,5.13
2018-07-14T15:24:51.890Z,3.40
2018-07-14T15:27:19.122Z,3.30
2018-07-14T15:29:46.525Z,3.00
2018-07-14T15:32:13.803Z,3.30
2018-07-14T15:34:40.981Z,3.23
2018-07-14T15:37:08.352Z,3.40
2018-07-14T15:39:35.541Z,2.90
2018-07-14T15:42:02.863Z,3.70
2018-07-14T15:44:30.059Z,3.00
2018-07-14T15:46:57.298Z,4.20
2018-07-14T15:49:24.660Z,19.83
2018-07-14T15:51:52.004Z,12.30
2018-07-14T15:54:19.316Z,4.73
2018-07-14T15:56:46.528Z,3.77
2018-07-14T15:59:13.812Z,3.07
2018-07-14T16:01:41.161Z,3.30
2018-07-14T16:04:08.385Z,2.93
2018-07-14T16:06:35.569Z,2.90
2018-07-14T16:09:03.742Z,3.47
2018-07-14T16:11:32.017Z,3.57
2018-07-14T16:13:59.318Z,3.10
2018-07-14T16:16:26.740Z,3.20
2018-07-14T16:18:53.929Z,2.97
2018-07-14T16:21:21.262Z,3.27
2018-07-14T16:23:48.560Z,3.93
2018-07-14T16:26:15.880Z,3.00
2018-07-14T16:28:43.132Z,3.57
2018-07-14T16:31:10.431Z,4.80
2018-07-14T16:33:37.632Z,3.83
2018-07-14T16:36:05.025Z,3.33
2018-07-14T16:38:32.302Z,3.27
2018-07-14T16:40:59.515Z,3.10
2018-07-14T16:43:26.792Z,3.10
2018-07-14T16:45:54.032Z,2.70
2018-07-14T16:48:21.251Z,2.90
2018-07-14T16:50:48.481Z,3.27
2018-07-14T16:53:15.741Z,3.40
2018-07-14T16:55:42.972Z,3.13
2018-07-14T16:58:10.191Z,3.10
2018-07-14T17:00:37.408Z,2.40
2018-07-14T17:03:04.677Z,3.47
2018-07-14T17:05:31.889Z,3.37
2018-07-14T17:07:59.103Z,3.03
2018-07-14T17:10:26.268Z,3.40
2018-07-14T17:12:53.537Z,2.93
2018-07-14T17:15:20.768Z,2.60
2018-07-14T17:17:48.001Z,2.90
2018-07-14T17:20:15.298Z,3.20
2018-07-14T17:22:42.552Z,3.70
2018-07-14T17:25:09.886Z,3.60
2018-07-14T17:27:37.084Z,3.23
2018-07-14T17:30:04.349Z,3.10
2018-07-14T17:32:31.629Z,2.97
2018-07-14T17:34:58.970Z,3.20
2018-07-14T17:37:26.253Z,2.50
2018-07-14T17:39:53.511Z,2.83
2018-07-14T17:42:20.840Z,3.20
2018-07-14T17:44:48.100Z,3.40
2018-07-14T17:47:15.406Z,3.33
2018-07-14T17:49:42.597Z,3.33
2018-07-14T17:52:09.888Z,2.93
2018-07-14T17:54:36.934Z,3.43
2018-07-14T17:57:04.277Z,3.37
2018-07-14T17:59:31.580Z,3.67
2018-07-14T18:01:58.744Z,2.60
2018-07-14T18:04:25.921Z,4.20
2018-07-14T18:06:53.189Z,3.40
2018-07-14T18:09:20.438Z,3.30
2018-07-14T18:11:47.649Z,3.10
2018-07-14T18:14:14.888Z,3.30
2018-07-14T18:16:42.121Z,3.33
2018-07-14T18:19:09.390Z,3.30
2018-07-14T18:21:36.637Z,4.30
2018-07-14T18:24:03.881Z,3.40
2018-07-14T18:26:31.124Z,4.10
2018-07-14T18:28:58.360Z,3.53
2018-07-14T18:31:25.560Z,3.20
2018-07-14T18:33:52.757Z,3.60
2018-07-14T18:36:20.037Z,3.40
2018-07-14T18:38:47.146Z,3.93
2018-07-14T18:41:14.405Z,3.50
2018-07-14T18:43:41.606Z,2.90
2018-07-14T18:46:08.793Z,2.63
2018-07-14T18:48:36.010Z,3.00
2018-07-14T18:51:03.152Z,8.57
2018-07-14T18:53:30.368Z,10.20
2018-07-14T18:55:57.685Z,7.60
2018-07-14T18:58:24.912Z,4.00
2018-07-14T19:00:52.112Z,3.47
2018-07-14T19:03:19.305Z,4.00
2018-07-14T19:05:46.504Z,3.43
2018-07-14T19:08:13.736Z,3.77
2018-07-14T19:10:40.986Z,3.33
2018-07-14T19:13:08.165Z,3.83
2018-07-14T19:15:35.438Z,3.77
2018-07-14T19:18:02.616Z,3.40
2018-07-14T19:20:29.832Z,4.07
2018-07-14T19:22:57.000Z,3.90
2018-07-14T19:25:24.181Z,4.03
2018-07-14T19:27:51.455Z,3.70
2018-07-14T19:30:18.701Z,4.03
2018-07-14T19:32:45.792Z,4.03
2018-07-14T19:35:12.942Z,3.60
2018-07-14T19:37:40.188Z,4.00
2018-07-14T19:40:07.436Z,3.90
2018-07-14T19:42:34.650Z,3.80
2018-07-14T19:45:01.952Z,3.40
2018-07-14T19:47:29.212Z,3.50
2018-07-14T19:49:56.348Z,3.97
2018-07-14T19:52:23.677Z,4.30
2018-07-14T19:54:50.909Z,3.83
2018-07-14T19:57:18.130Z,3.87
2018-07-14T19:59:45.308Z,3.90
2018-07-14T20:02:12.585Z,4.40
2018-07-14T20:04:39.848Z,5.00
2018-07-14T20:07:07.132Z,4.20
2018-07-14T20:09:34.384Z,5.00
2018-07-14T20:12:01.623Z,4.17
2018-07-14T20:14:28.830Z,5.43
2018-07-14T20:16:56.065Z,5.57
2018-07-14T20:19:23.300Z,4.97
2018-07-14T20:21:50.521Z,4.90
2018-07-14T20:24:17.988Z,4.60
2018-07-14T20:26:45.432Z,4.93
2018-07-14T20:29:12.597Z,4.63
2018-07-14T20:31:39.756Z,4.70
2018-07-14T20:34:06.996Z,5.07
2018-07-14T20:36:34.341Z,4.30
2018-07-14T20:39:01.630Z,4.93
2018-07-14T20:41:28.893Z,7.33
2018-07-14T20:43:55.997Z,4.60
2018-07-14T20:46:23.277Z,5.30
2018-07-14T20:48:50.547Z,4.83
2018-07-14T20:51:17.774Z,5.83
2018-07-14T20:53:44.976Z,5.10
2018-07-14T20:56:12.192Z,5.40
2018-07-14T20:58:39.416Z,5.03
2018-07-14T21:01:06.656Z,4.87
2018-07-14T21:03:33.852Z,4.80
2018-07-14T21:06:01.082Z,6.03
2018-07-14T21:08:28.240Z,10.00
2018-07-14T21:10:55.509Z,6.17
2018-07-14T21:13:22.744Z,5.53
2018-07-14T21:15:49.933Z,5.53
2018-07-14T21:18:17.159Z,5.33
2018-07-14T21:20:44.491Z,5.10
2018-07-14T21:23:11.699Z,5.10
2018-07-14T21:25:38.895Z,4.90
2018-07-14T21:28:06.118Z,5.00
2018-07-14T21:30:33.418Z,5.10
2018-07-14T21:33:00.576Z,4.60
2018-07-14T21:35:27.776Z,4.70
2018-07-14T21:37:55.041Z,4.87
2018-07-14T21:40:22.275Z,4.30
2018-07-14T21:42:49.480Z,4.63
2018-07-14T21:45:17.749Z,5.10
2018-07-14T21:47:44.926Z,5.33
2018-07-14T21:50:12.343Z,5.43
2018-07-14T21:52:39.591Z,5.33
2018-07-14T21:55:06.779Z,5.20
2018-07-14T21:57:33.988Z,5.63
2018-07-14T22:00:01.181Z,5.20
2018-07-14T22:02:28.467Z,4.83
2018-07-14T22:04:55.732Z,5.20
2018-07-14T22:07:22.996Z,4.87
2018-07-14T22:09:50.210Z,4.87
2018-07-14T22:12:17.476Z,4.77
2018-07-14T22:14:44.610Z,4.70
2018-07-14T22:17:11.889Z,5.03
2018-07-14T22:19:39.104Z,5.00
2018-07-14T22:22:06.341Z,5.80
2018-07-14T22:24:33.553Z,5.23
2018-07-14T22:27:00.744Z,5.37
2018-07-14T22:29:27.964Z,4.60
2018-07-14T22:31:55.290Z,4.80
2018-07-14T22:34:22.493Z,5.47
2018-07-14T22:36:49.761Z,4.70
2018-07-14T22:39:17.017Z,4.80
2018-07-14T22:41:45.331Z,4.83
2018-07-14T22:44:12.552Z,5.40
2018-07-14T22:46:39.732Z,4.70
2018-07-14T22:49:06.991Z,5.10
2018-07-14T22:51:34.233Z,5.23
2018-07-14T22:54:01.502Z,5.40
2018-07-14T22:56:28.703Z,4.77
2018-07-14T22:58:55.932Z,5.20
2018-07-14T23:01:23.152Z,5.33
2018-07-14T23:03:50.421Z,5.00
2018-07-14T23:06:17.648Z,5.83
2018-07-14T23:08:44.841Z,5.00
2018-07-14T23:11:12.024Z,4.93
2018-07-14T23:13:39.245Z,5.00
2018-07-14T23:16:06.450Z,5.30
2018-07-14T23:18:33.578Z,5.40
2018-07-14T23:21:00.821Z,5.47
2018-07-14T23:23:28.093Z,4.87
2018-07-14T23:25:55.440Z,5.70
2018-07-14T23:28:22.697Z,6.30
2018-07-14T23:30:50.934Z,7.30
2018-07-14T23:33:18.173Z,9.20
2018-07-14T23:35:45.450Z,6.83
2018-07-14T23:38:12.651Z,7.07
2018-07-14T23:40:40.000Z,5.23
2018-07-14T23:43:07.248Z,5.70
2018-07-14T23:45:34.421Z,4.90
2018-07-14T23:48:01.700Z,5.33
2018-07-14T23:50:28.884Z,4.90
2018-07-14T23:52:56.093Z,4.83
2018-07-14T23:55:23.304Z,4.73
2018-07-14T23:57:50.520Z,6.70
